createdAt,value
2018-04-18T00:01:44.350Z,13.52
2018-04-18T00:04:12.135Z,13.49
2018-04-18T00:06:39.786Z,13.45
2018-04-18T00:09:07.727Z,13.41
2018-04-18T00:11:35.591Z,13.39
2018-04-18T00:14:03.580Z,13.35
2018-04-18T00:16:31.189Z,13.32
2018-04-18T00:18:59.096Z,13.28
2018-04-18T00:21:26.718Z,13.25
2018-04-18T00:23:54.337Z,13.22
2018-04-18T00:26:21.958Z,13.19
2018-04-18T00:28:49.664Z,13.16
2018-04-18T00:31:17.281Z,13.13
2018-04-18T00:33:44.930Z,13.09
2018-04-18T00:36:12.640Z,13.03
2018-04-18T00:38:40.923Z,13.00
2018-04-18T00:41:08.604Z,12.95
2018-04-18T00:43:36.351Z,12.91
2018-04-18T00:46:03.951Z,12.87
2018-04-18T00:48:32.262Z,12.83
2018-04-18T00:50:59.878Z,12.79
2018-04-18T00:53:27.596Z,12.76
2018-04-18T00:55:55.208Z,12.72
2018-04-18T00:58:22.950Z,12.69
2018-04-18T01:00:50.580Z,12.64
2018-04-18T01:03:18.344Z,12.59
2018-04-18T01:05:45.994Z,12.57
2018-04-18T01:08:13.984Z,12.56
2018-04-18T01:10:41.648Z,12.57
2018-04-18T01:13:09.297Z,12.56
2018-04-18T01:15:36.979Z,12.54
2018-04-18T01:18:04.651Z,12.52
2018-04-18T01:20:32.404Z,12.50
2018-04-18T01:22:59.984Z,12.51
2018-04-18T01:25:27.731Z,12.49
2018-04-18T01:27:55.748Z,12.48
2018-04-18T01:30:23.399Z,12.46
2018-04-18T01:32:51.116Z,12.43
2018-04-18T01:35:18.814Z,12.40
2018-04-18T01:37:46.422Z,12.39
2018-04-18T01:40:14.112Z,12.37
2018-04-18T01:42:42.780Z,12.32
2018-04-18T01:45:10.506Z,12.28
2018-04-18T01:47:38.123Z,12.27
2018-04-18T01:50:05.699Z,12.22
2018-04-18T01:52:33.741Z,12.18
2018-04-18T01:55:02.143Z,12.13
2018-04-18T01:57:29.853Z,12.09
2018-04-18T01:59:57.552Z,12.05
2018-04-18T02:02:25.169Z,12.00
2018-04-18T02:04:52.956Z,11.97
2018-04-18T02:07:20.587Z,11.94
2018-04-18T02:09:48.466Z,11.91
2018-04-18T02:12:16.178Z,11.88
2018-04-18T02:14:43.945Z,11.85
2018-04-18T02:17:11.738Z,11.83
2018-04-18T02:19:39.354Z,11.80
2018-04-18T02:22:07.084Z,11.78
2018-04-18T02:24:34.750Z,11.76
2018-04-18T02:27:02.431Z,11.74
2018-04-18T02:29:30.132Z,11.73
2018-04-18T02:31:57.819Z,11.69
2018-04-18T02:34:25.551Z,11.66
2018-04-18T02:36:53.308Z,11.63
2018-04-18T02:39:21.013Z,11.58
2018-04-18T02:41:48.667Z,11.53
2018-04-18T02:44:16.316Z,11.50
2018-04-18T02:46:44.067Z,11.49
2018-04-18T02:49:11.761Z,11.48
2018-04-18T02:51:39.694Z,11.46
2018-04-18T02:54:07.393Z,11.44
2018-04-18T02:56:35.028Z,11.40
2018-04-18T02:59:02.696Z,11.38
2018-04-18T03:01:30.298Z,11.38
2018-04-18T03:03:58.310Z,11.36
2018-04-18T03:06:25.980Z,11.33
2018-04-18T03:08:53.697Z,11.30
2018-04-18T03:11:21.352Z,11.27
2018-04-18T03:13:48.986Z,11.24
2018-04-18T03:16:16.616Z,11.22
2018-04-18T03:18:44.273Z,11.19
2018-04-18T03:21:11.891Z,11.18
2018-04-18T03:23:39.571Z,11.14
2018-04-18T03:26:07.233Z,11.12
2018-04-18T03:28:34.821Z,11.09
2018-04-18T03:31:02.438Z,11.06
2018-04-18T03:33:30.082Z,11.04
2018-04-18T03:35:57.736Z,11.02
2018-04-18T03:38:25.787Z,11.01
2018-04-18T03:40:53.651Z,11.00
2018-04-18T03:43:21.261Z,10.98
2018-04-18T03:45:48.881Z,10.96
2018-04-18T03:48:16.547Z,10.94
2018-04-18T03:50:44.274Z,10.93
2018-04-18T03:53:11.972Z,10.90
2018-04-18T03:55:39.622Z,10.89
2018-04-18T03:58:07.422Z,10.87
2018-04-18T04:00:35.095Z,10.86
2018-04-18T04:03:02.743Z,10.84
2018-04-18T04:05:30.687Z,10.82
2018-04-18T04:07:58.272Z,10.79
2018-04-18T04:10:25.990Z,10.77
2018-04-18T04:12:53.585Z,10.74
2018-04-18T04:15:21.325Z,10.70
2018-04-18T04:18:00.835Z,10.68
2018-04-18T04:20:40.653Z,10.65
2018-04-18T04:23:20.091Z,10.63
2018-04-18T04:25:47.820Z,10.61
2018-04-18T04:28:15.495Z,10.60
2018-04-18T04:30:43.321Z,10.59
2018-04-18T04:33:11.052Z,10.58
2018-04-18T04:35:38.705Z,10.57
2018-04-18T04:38:06.350Z,10.56
2018-04-18T04:40:33.946Z,10.55
2018-04-18T04:43:01.996Z,10.54
2018-04-18T04:45:29.612Z,10.53
2018-04-18T04:47:57.634Z,10.51
2018-04-18T04:50:26.202Z,10.48
2018-04-18T04:52:53.970Z,10.46
2018-04-18T04:55:21.685Z,10.45
2018-04-18T04:57:49.331Z,10.44
2018-04-18T05:00:16.992Z,10.43
2018-04-18T05:02:44.653Z,10.43
2018-04-18T05:05:12.507Z,10.43
2018-04-18T05:07:40.271Z,10.42
2018-04-18T05:10:07.868Z,10.43
2018-04-18T05:12:35.520Z,10.44
2018-04-18T05:15:03.243Z,10.47
2018-04-18T05:17:30.880Z,10.50
2018-04-18T05:19:58.505Z,10.54
2018-04-18T05:22:26.140Z,10.56
2018-04-18T05:24:53.731Z,10.60
2018-04-18T05:27:21.764Z,10.64
2018-04-18T05:29:49.537Z,10.69
2018-04-18T05:32:17.541Z,10.76
2018-04-18T05:34:45.289Z,10.82
2018-04-18T05:37:12.985Z,10.88
2018-04-18T05:39:40.587Z,10.94
2018-04-18T05:42:08.247Z,11.03
2018-04-18T05:44:35.885Z,11.12
2018-04-18T05:47:03.479Z,11.20
2018-04-18T05:49:31.421Z,11.29
2018-04-18T05:51:59.107Z,11.38
2018-04-18T05:54:26.818Z,11.46
2018-04-18T05:56:54.722Z,11.56
2018-04-18T05:59:23.219Z,11.65
2018-04-18T06:01:50.817Z,11.75
2018-04-18T06:04:18.447Z,11.87
2018-04-18T06:06:46.298Z,11.96
2018-04-18T06:09:13.906Z,12.07
2018-04-18T06:11:41.596Z,12.16
2018-04-18T06:14:09.188Z,12.22
2018-04-18T06:16:36.944Z,12.33
2018-04-18T06:19:04.556Z,12.43
2018-04-18T06:21:32.140Z,12.54
2018-04-18T06:23:59.813Z,12.65
2018-04-18T06:26:27.416Z,12.77
2018-04-18T06:28:55.348Z,12.89
2018-04-18T06:31:22.930Z,13.00
2018-04-18T06:33:50.545Z,13.12
2018-04-18T06:36:18.238Z,13.26
2018-04-18T06:38:46.087Z,13.43
2018-04-18T06:41:13.846Z,13.61
2018-04-18T06:43:41.429Z,13.77
2018-04-18T06:46:09.092Z,13.91
2018-04-18T06:48:36.700Z,14.07
2018-04-18T06:51:04.506Z,14.23
2018-04-18T06:53:32.097Z,14.40
2018-04-18T06:56:00.019Z,14.57
2018-04-18T06:58:27.687Z,14.75
2018-04-18T07:00:55.282Z,14.98
2018-04-18T07:03:22.970Z,15.22
2018-04-18T07:05:51.411Z,15.43
2018-04-18T07:08:19.068Z,15.61
2018-04-18T07:10:46.694Z,15.82
2018-04-18T07:13:14.411Z,16.01
2018-04-18T07:15:42.022Z,16.22
2018-04-18T07:18:09.938Z,16.42
2018-04-18T07:20:37.648Z,16.66
2018-04-18T07:23:05.264Z,16.88
2018-04-18T07:25:33.223Z,17.05
2018-04-18T07:28:00.819Z,17.23
2018-04-18T07:30:28.987Z,17.42
2018-04-18T07:32:56.716Z,17.60
2018-04-18T07:35:24.444Z,17.78
2018-04-18T07:37:52.064Z,17.96
2018-04-18T07:40:19.661Z,18.14
2018-04-18T07:42:47.285Z,18.35
2018-04-18T07:45:14.941Z,18.53
2018-04-18T07:47:42.570Z,18.69
2018-04-18T07:50:10.466Z,18.88
2018-04-18T07:52:38.071Z,19.08
2018-04-18T07:55:06.155Z,19.26
2018-04-18T07:57:33.888Z,19.44
2018-04-18T08:00:01.491Z,19.59
2018-04-18T08:02:29.126Z,19.78
2018-04-18T08:04:57.069Z,19.95
2018-04-18T08:07:24.866Z,20.13
2018-04-18T08:09:52.558Z,20.27
2018-04-18T08:12:20.164Z,20.39
2018-04-18T08:14:47.885Z,20.52
2018-04-18T08:17:15.581Z,20.64
2018-04-18T08:19:43.250Z,20.78
2018-04-18T08:22:11.319Z,20.94
2018-04-18T08:24:39.192Z,21.11
2018-04-18T08:27:06.871Z,21.22
2018-04-18T08:29:34.589Z,21.28
2018-04-18T08:32:02.199Z,21.41
2018-04-18T08:34:29.995Z,21.47
2018-04-18T08:36:57.895Z,21.57
2018-04-18T08:39:25.573Z,21.69
2018-04-18T08:41:53.188Z,21.85
2018-04-18T08:44:20.856Z,21.98
2018-04-18T08:46:48.503Z,22.12
2018-04-18T08:49:16.193Z,22.25
2018-04-18T08:51:43.806Z,22.34
2018-04-18T08:54:11.447Z,22.42
2018-04-18T08:59:16.693Z,22.73
2018-04-18T09:01:44.289Z,22.91
2018-04-18T09:04:12.300Z,23.02
2018-04-18T09:06:40.105Z,23.15
2018-04-18T09:09:07.760Z,23.34
2018-04-18T09:11:35.814Z,23.50
2018-04-18T09:14:03.432Z,23.65
2018-04-18T09:16:31.265Z,23.74
2018-04-18T09:18:58.959Z,23.85
2018-04-18T09:21:26.556Z,23.91
2018-04-18T09:23:54.291Z,23.98
2018-04-18T09:26:21.933Z,24.15
2018-04-18T09:28:49.649Z,24.33
2018-04-18T09:31:17.250Z,24.53
2018-04-18T09:33:44.843Z,24.66
2018-04-18T09:36:12.529Z,24.57
2018-04-18T09:38:40.120Z,24.50
2018-04-18T09:41:08.169Z,24.41
2018-04-18T09:43:36.256Z,24.54
2018-04-18T09:46:04.210Z,24.72
2018-04-18T09:48:31.862Z,24.80
2018-04-18T09:50:59.520Z,24.83
2018-04-18T09:53:27.377Z,24.87
2018-04-18T09:55:55.034Z,24.95
2018-04-18T09:58:23.020Z,25.09
2018-04-18T10:00:56.552Z,25.20
2018-04-18T10:03:24.827Z,25.38
2018-04-18T10:05:52.483Z,25.43
2018-04-18T10:08:20.074Z,25.48
2018-04-18T10:10:47.734Z,25.52
2018-04-18T10:13:15.385Z,25.73
2018-04-18T10:15:43.266Z,25.91
2018-04-18T10:18:10.880Z,26.18
2018-04-18T10:20:38.577Z,26.46
2018-04-18T10:23:06.280Z,26.59
2018-04-18T10:25:33.941Z,26.75
2018-04-18T10:28:01.521Z,26.98
2018-04-18T10:30:29.495Z,27.24
2018-04-18T10:32:57.072Z,27.52
2018-04-18T10:35:24.684Z,27.69
2018-04-18T10:37:52.595Z,27.74
2018-04-18T10:40:20.575Z,27.85
2018-04-18T10:42:48.251Z,27.81
2018-04-18T10:45:16.107Z,27.78
2018-04-18T10:47:43.756Z,27.60
2018-04-18T10:50:11.365Z,27.70
2018-04-18T10:52:39.014Z,27.83
2018-04-18T10:55:06.640Z,27.99
2018-04-18T10:57:34.252Z,28.15
2018-04-18T11:00:01.855Z,28.39
2018-04-18T11:02:29.467Z,28.53
2018-04-18T11:04:57.767Z,28.54
2018-04-18T11:07:25.636Z,28.74
2018-04-18T11:09:53.289Z,29.02
2018-04-18T11:12:21.204Z,29.31
2018-04-18T11:14:48.983Z,29.48
2018-04-18T11:17:16.972Z,29.63
2018-04-18T11:19:44.653Z,29.61
2018-04-18T11:22:12.571Z,29.77
2018-04-18T11:24:40.580Z,30.00
2018-04-18T11:27:08.265Z,29.80
2018-04-18T11:29:35.914Z,29.76
2018-04-18T11:32:03.524Z,29.87
2018-04-18T11:34:31.178Z,30.16
2018-04-18T11:36:58.827Z,30.01
2018-04-18T11:39:26.410Z,29.86
2018-04-18T11:41:54.027Z,29.98
2018-04-18T11:44:21.622Z,30.34
2018-04-18T11:46:49.295Z,30.66
2018-04-18T11:49:16.950Z,30.68
2018-04-18T11:51:44.559Z,30.68
2018-04-18T11:54:12.217Z,30.78
2018-04-18T11:56:39.967Z,30.94
2018-04-18T11:59:07.584Z,31.20
2018-04-18T12:01:35.240Z,31.57
2018-04-18T12:04:02.859Z,31.83
2018-04-18T12:06:30.490Z,31.83
2018-04-18T12:08:58.080Z,31.70
2018-04-18T12:11:26.049Z,31.67
2018-04-18T12:13:53.737Z,31.26
2018-04-18T12:16:21.531Z,31.14
2018-04-18T12:18:49.120Z,31.24
2018-04-18T12:21:16.739Z,31.23
2018-04-18T12:23:44.697Z,31.23
2018-04-18T12:26:12.296Z,31.35
2018-04-18T12:28:39.982Z,31.61
2018-04-18T12:31:07.658Z,31.84
2018-04-18T12:33:35.281Z,31.87
2018-04-18T12:36:03.041Z,31.85
2018-04-18T12:38:30.734Z,32.05
2018-04-18T12:40:58.346Z,32.25
2018-04-18T12:43:26.005Z,32.59
2018-04-18T12:45:53.592Z,32.96
2018-04-18T12:48:21.639Z,33.10
2018-04-18T12:50:49.276Z,32.92
2018-04-18T12:53:17.109Z,33.09
2018-04-18T12:55:44.789Z,33.17
2018-04-18T12:58:12.374Z,33.18
2018-04-18T13:00:39.989Z,33.23
2018-04-18T13:03:07.667Z,33.26
2018-04-18T13:05:35.357Z,33.47
2018-04-18T13:08:03.101Z,33.60
2018-04-18T13:10:30.717Z,33.61
2018-04-18T13:12:58.323Z,33.68
2018-04-18T13:15:26.667Z,33.74
2018-04-18T13:17:54.476Z,33.59
2018-04-18T13:20:22.309Z,33.55
2018-04-18T13:22:50.047Z,33.54
2018-04-18T13:25:17.707Z,33.31
2018-04-18T13:27:45.700Z,33.13
2018-04-18T13:30:13.352Z,33.14
2018-04-18T13:32:41.415Z,33.17
2018-04-18T13:35:09.045Z,33.33
2018-04-18T13:37:36.735Z,33.57
2018-04-18T13:40:04.412Z,33.59
2018-04-18T13:42:32.036Z,33.61
2018-04-18T13:45:00.191Z,33.55
2018-04-18T13:47:27.822Z,33.65
2018-04-18T13:49:55.808Z,33.83
2018-04-18T13:52:23.428Z,34.08
2018-04-18T13:54:51.438Z,34.33
2018-04-18T13:57:19.236Z,34.53
2018-04-18T13:59:46.815Z,34.39
2018-04-18T14:02:14.931Z,33.64
2018-04-18T14:04:42.654Z,33.61
2018-04-18T14:07:10.664Z,33.51
2018-04-18T14:09:38.824Z,33.69
2018-04-18T14:12:06.706Z,33.88
2018-04-18T14:14:34.358Z,34.23
2018-04-18T14:17:02.402Z,34.21
2018-04-18T14:19:30.131Z,34.13
2018-04-18T14:21:58.069Z,34.08
2018-04-18T14:24:25.787Z,34.14
2018-04-18T14:26:53.407Z,34.19
2018-04-18T14:29:21.075Z,34.01
2018-04-18T14:31:48.829Z,34.00
2018-04-18T14:34:16.457Z,34.18
2018-04-18T14:36:44.193Z,34.35
2018-04-18T14:39:12.021Z,34.59
2018-04-18T14:41:39.602Z,34.80
2018-04-18T14:44:07.234Z,34.87
2018-04-18T14:46:35.202Z,34.90
2018-04-18T14:49:02.949Z,34.78
2018-04-18T14:51:30.573Z,34.63
2018-04-18T14:53:58.259Z,34.43
2018-04-18T14:56:25.936Z,34.31
2018-04-18T14:58:53.976Z,34.40
2018-04-18T15:01:21.714Z,34.42
2018-04-18T15:03:49.406Z,34.30
2018-04-18T15:06:17.142Z,34.29
2018-04-18T15:08:44.752Z,34.38
2018-04-18T15:11:12.550Z,34.48
2018-04-18T15:13:40.255Z,34.30
2018-04-18T15:16:07.918Z,34.11
2018-04-18T15:18:35.519Z,33.85
2018-04-18T15:21:03.219Z,33.71
2018-04-18T15:23:30.961Z,33.49
2018-04-18T15:25:58.924Z,33.56
2018-04-18T15:28:26.761Z,33.59
2018-04-18T15:30:54.661Z,33.74
2018-04-18T15:33:22.325Z,33.83
2018-04-18T15:35:50.414Z,33.96
2018-04-18T15:38:18.060Z,33.80
2018-04-18T15:40:45.927Z,33.48
2018-04-18T15:43:13.647Z,33.38
2018-04-18T15:45:41.265Z,33.46
2018-04-18T15:48:08.939Z,33.41
2018-04-18T15:50:36.613Z,33.34
2018-04-18T15:53:04.434Z,33.33
2018-04-18T15:55:32.040Z,33.40
2018-04-18T15:58:00.311Z,33.25
2018-04-18T16:00:28.009Z,33.29
2018-04-18T16:02:55.747Z,33.24
2018-04-18T16:05:23.383Z,33.11
2018-04-18T16:07:51.040Z,32.69
2018-04-18T16:10:19.070Z,32.28
2018-04-18T16:12:46.980Z,31.82
2018-04-18T16:15:14.696Z,31.46
2018-04-18T16:17:42.782Z,31.10
2018-04-18T16:20:10.696Z,31.04
2018-04-18T16:22:38.332Z,31.09
2018-04-18T16:25:06.076Z,31.09
2018-04-18T16:27:33.746Z,31.13
2018-04-18T16:30:01.359Z,31.17
2018-04-18T16:32:29.078Z,30.74
2018-04-18T16:34:56.745Z,30.58
2018-04-18T16:37:24.350Z,30.63
2018-04-18T16:39:52.132Z,30.58
2018-04-18T16:42:19.742Z,30.36
2018-04-18T16:44:47.354Z,30.27
2018-04-18T16:47:15.199Z,30.27
2018-04-18T16:49:42.824Z,30.20
2018-04-18T16:52:10.632Z,30.05
2018-04-18T16:54:38.351Z,29.96
2018-04-18T16:57:05.962Z,29.97
2018-04-18T16:59:33.649Z,29.94
2018-04-18T17:02:01.497Z,29.89
2018-04-18T17:04:29.121Z,29.95
2018-04-18T17:06:57.026Z,30.00
2018-04-18T17:09:24.637Z,29.95
2018-04-18T17:11:53.380Z,29.87
2018-04-18T17:14:20.999Z,29.86
2018-04-18T17:16:48.652Z,29.75
2018-04-18T17:19:16.685Z,29.56
2018-04-18T17:21:44.305Z,29.32
2018-04-18T17:24:11.902Z,29.17
2018-04-18T17:26:40.218Z,28.99
2018-04-18T17:29:07.958Z,28.86
2018-04-18T17:31:35.653Z,28.82
2018-04-18T17:34:03.341Z,28.82
2018-04-18T17:36:31.556Z,28.83
2018-04-18T17:38:59.425Z,28.86
2018-04-18T17:41:27.036Z,28.85
2018-04-18T17:43:55.103Z,28.73
2018-04-18T17:46:22.777Z,28.49
2018-04-18T17:48:50.390Z,28.25
2018-04-18T17:51:18.352Z,28.02
2018-04-18T17:53:46.008Z,27.79
2018-04-18T17:56:13.600Z,27.63
2018-04-18T17:58:41.212Z,27.43
2018-04-18T18:01:08.831Z,27.33
2018-04-18T18:03:36.524Z,27.16
2018-04-18T18:06:04.133Z,26.99
2018-04-18T18:08:32.018Z,26.96
2018-04-18T18:10:59.627Z,26.96
2018-04-18T18:13:27.385Z,26.93
2018-04-18T18:15:55.103Z,26.79
2018-04-18T18:18:22.701Z,26.68
2018-04-18T18:20:50.637Z,26.56
2018-04-18T18:23:18.235Z,26.54
2018-04-18T18:25:46.169Z,26.51
2018-04-18T18:28:13.753Z,26.48
2018-04-18T18:30:41.813Z,26.41
2018-04-18T18:33:09.468Z,26.27
2018-04-18T18:35:37.107Z,26.18
2018-04-18T18:38:04.944Z,26.10
2018-04-18T18:40:32.529Z,26.01
2018-04-18T18:43:00.347Z,25.85
2018-04-18T18:45:28.031Z,25.68
2018-04-18T18:47:55.812Z,25.52
2018-04-18T18:50:23.427Z,25.35
2018-04-18T18:52:51.352Z,25.13
2018-04-18T18:55:19.469Z,24.87
2018-04-18T18:57:47.118Z,24.67
2018-04-18T19:00:14.770Z,24.48
2018-04-18T19:02:42.517Z,24.25
2018-04-18T19:05:10.180Z,24.08
2018-04-18T19:07:37.841Z,23.97
2018-04-18T19:10:06.177Z,23.81
2018-04-18T19:12:34.048Z,23.66
2018-04-18T19:15:01.793Z,23.56
2018-04-18T19:17:29.452Z,23.45
2018-04-18T19:19:57.522Z,23.34
2018-04-18T19:22:25.191Z,23.26
2018-04-18T19:24:52.905Z,23.16
2018-04-18T19:27:20.519Z,23.08
2018-04-18T19:29:48.149Z,23.05
2018-04-18T19:32:16.241Z,23.06
2018-04-18T19:34:43.832Z,23.06
2018-04-18T19:37:11.697Z,23.03
2018-04-18T19:39:39.348Z,22.98
2018-04-18T19:42:07.025Z,22.89
2018-04-18T19:44:34.674Z,22.75
2018-04-18T19:47:02.397Z,22.59
2018-04-18T19:49:30.023Z,22.44
2018-04-18T19:51:58.057Z,22.37
2018-04-18T19:54:25.701Z,22.27
2018-04-18T19:56:53.452Z,22.19
2018-04-18T19:59:21.111Z,22.09
2018-04-18T20:01:48.756Z,21.99
2018-04-18T20:04:16.876Z,21.90
2018-04-18T20:06:44.671Z,21.81
2018-04-18T20:09:13.279Z,21.70
2018-04-18T20:11:41.043Z,21.59
2018-04-18T20:14:08.823Z,21.47
2018-04-18T20:16:36.481Z,21.39
2018-04-18T20:19:04.094Z,21.29
2018-04-18T20:21:31.703Z,21.22
2018-04-18T20:23:59.351Z,21.14
2018-04-18T20:26:27.048Z,21.07
2018-04-18T20:28:54.680Z,21.00
2018-04-18T20:31:22.311Z,20.96
2018-04-18T20:33:50.356Z,20.90
2018-04-18T20:36:18.190Z,20.85
2018-04-18T20:38:45.776Z,20.82
2018-04-18T20:41:13.457Z,20.74
2018-04-18T20:43:41.048Z,20.66
2018-04-18T20:46:08.724Z,20.58
2018-04-18T20:48:36.336Z,20.51
2018-04-18T20:51:03.939Z,20.44
2018-04-18T20:53:31.974Z,20.38
2018-04-18T20:55:59.636Z,20.27
2018-04-18T20:58:27.300Z,20.18
2018-04-18T21:00:54.998Z,20.13
2018-04-18T21:03:22.584Z,20.09
2018-04-18T21:05:50.276Z,20.03
2018-04-18T21:08:17.889Z,19.97
2018-04-18T21:10:46.139Z,19.91
2018-04-18T21:13:13.802Z,19.85
2018-04-18T21:15:41.465Z,19.82
2018-04-18T21:18:09.094Z,19.78
2018-04-18T21:20:37.069Z,19.75
2018-04-18T21:23:04.736Z,19.70
2018-04-18T21:25:32.355Z,19.66
2018-04-18T21:28:00.001Z,19.62
2018-04-18T21:30:27.660Z,19.57
2018-04-18T21:32:55.448Z,19.55
2018-04-18T21:35:23.140Z,19.50
2018-04-18T21:37:50.761Z,19.45
2018-04-18T21:40:18.381Z,19.41
2018-04-18T21:42:46.119Z,19.40
2018-04-18T21:47:43.555Z,19.28
2018-04-18T21:50:11.740Z,19.25
2018-04-18T21:52:39.845Z,19.18
2018-04-18T21:55:08.014Z,19.16
2018-04-18T21:57:36.246Z,19.14
2018-04-18T22:00:04.363Z,19.10
2018-04-18T22:02:32.234Z,19.02
2018-04-18T22:04:59.819Z,18.95
2018-04-18T22:07:27.750Z,18.89
2018-04-18T22:09:55.745Z,18.87
2018-04-18T22:12:23.447Z,18.86
2018-04-18T22:14:51.228Z,18.83
2018-04-18T22:17:18.872Z,18.82
2018-04-18T22:19:46.596Z,18.79
2018-04-18T22:22:14.679Z,18.72
2018-04-18T22:24:42.292Z,18.68
2018-04-18T22:27:09.936Z,18.64
2018-04-18T22:29:37.556Z,18.60
2018-04-18T22:32:05.157Z,18.58
2018-04-18T22:34:32.766Z,18.56
2018-04-18T22:37:00.375Z,18.53
2018-04-18T22:39:28.082Z,18.50
2018-04-18T22:41:55.694Z,18.48
2018-04-18T22:44:23.559Z,18.46
2018-04-18T22:46:51.250Z,18.41
2018-04-18T22:49:19.350Z,18.39
2018-04-18T22:51:47.415Z,18.38
2018-04-18T22:54:15.005Z,18.34
2018-04-18T22:56:42.593Z,18.30
2018-04-18T22:59:10.615Z,18.26
2018-04-18T23:01:38.215Z,18.19
2018-04-18T23:04:05.871Z,18.15
2018-04-18T23:06:33.536Z,18.12
2018-04-18T23:09:01.123Z,18.09
2018-04-18T23:11:29.091Z,18.08
2018-04-18T23:13:56.997Z,18.06
2018-04-18T23:16:24.593Z,18.06
2018-04-18T23:18:53.040Z,18.03
2018-04-18T23:21:20.709Z,18.00
2018-04-18T23:23:48.589Z,17.95
2018-04-18T23:26:16.366Z,17.94
2018-04-18T23:28:44.079Z,17.91
2018-04-18T23:31:12.443Z,17.90
2018-04-18T23:33:40.111Z,17.85
2018-04-18T23:36:07.724Z,17.83
2018-04-18T23:38:35.474Z,17.80
2018-04-18T23:41:03.457Z,17.77
2018-04-18T23:43:31.453Z,17.74
2018-04-18T23:45:59.109Z,17.71
2018-04-18T23:48:26.786Z,17.66
2018-04-18T23:50:54.601Z,17.64
2018-04-18T23:53:22.436Z,17.62
2018-04-18T23:55:50.501Z,17.60
2018-04-18T23:58:18.104Z,17.55
